Waka, Texas
Current Conditions -  °F | °C
As of 2:35 AM on Friday 31 Oct 2014 (Local Time) from KPYX Reporting Station
Clear Clear  
Wind Chill: 41°   Ceiling: Unl
Heat Index: 46°   Visibility: 10mi
Dew Point: 31°   Wind: 9mph
Humidity: 56%   Direction: 40°NE
Pressure: 30.39"   Gusts: NA
Location:  36.28°N, 101.05°W
Report Text: KPYX 310735Z AUTO 04008KT 10SM CLR 08/M01 A3039 RMK AO2 T00771007
Loading
Personal Weather Stations






























Interactive Weather Map
Tropical Storm Tracking
New forecast layout! Learn more

10-Day Weather Forecast

Advertisements
Track Severe Weather on mobile